Time;durP1;ratioP1;P1;durP2;ratioP2;P2;SDS_P1;SDS_P2;PMS_P1;PMS_P2;Temp;Humidity;BMP_temperature;BMP_pressure;BME280_temperature;BME280_humidity;BME280_pressure;Samples;Min_cycle;Max_cycle;Signal;HPM_P1;HPM_P2
2023/01/08 00:00:53;;;;;;;3.03;2.83;;;;;;;;;;5097822;28;20950;-63
2023/01/08 00:03:20;;;;;;;3.87;3.50;;;;;;;;;;5099709;28;20443;-62
2023/01/08 00:05:47;;;;;;;3.60;3.30;;;;;;;;;;5099737;28;20460;-63
2023/01/08 00:08:14;;;;;;;2.80;2.60;;;;;;;;;;5099508;28;20934;-63
2023/01/08 00:10:41;;;;;;;4.20;3.20;;;;;;;;;;5099537;28;20450;-63
2023/01/08 00:13:08;;;;;;;3.27;2.97;;;;;;;;;;5099571;28;20446;-63
2023/01/08 00:15:35;;;;;;;5.23;3.00;;;;;;;;;;5099583;28;20470;-63
2023/01/08 00:18:04;;;;;;;3.50;3.10;;;;;;;;;;5099592;28;20473;-62
2023/01/08 00:20:31;;;;;;;3.93;3.57;;;;;;;;;;5099480;28;20454;-63
2023/01/08 00:22:57;;;;;;;3.60;3.30;;;;;;;;;;5099380;28;20881;-63
2023/01/08 00:25:24;;;;;;;4.13;3.83;;;;;;;;;;5099640;28;20443;-63
2023/01/08 00:27:51;;;;;;;4.97;3.97;;;;;;;;;;5099596;28;20451;-63
2023/01/08 00:30:18;;;;;;;4.13;3.80;;;;;;;;;;5099518;28;20443;-62
2023/01/08 00:32:45;;;;;;;4.00;3.70;;;;;;;;;;5099532;28;20537;-63
2023/01/08 00:35:13;;;;;;;3.30;3.00;;;;;;;;;;5099463;28;20486;-63
2023/01/08 00:37:40;;;;;;;3.47;3.17;;;;;;;;;;5099249;28;20485;-63
2023/01/08 00:40:08;;;;;;;4.90;3.30;;;;;;;;;;5099512;28;20453;-63
2023/01/08 00:42:35;;;;;;;3.23;2.97;;;;;;;;;;5099533;28;20457;-63
2023/01/08 00:45:02;;;;;;;3.80;3.50;;;;;;;;;;5099241;28;20478;-63
2023/01/08 00:47:29;;;;;;;4.00;3.53;;;;;;;;;;5099363;28;20458;-63
2023/01/08 00:49:56;;;;;;;2.97;2.73;;;;;;;;;;5099242;28;20889;-63
2023/01/08 00:52:24;;;;;;;4.10;3.70;;;;;;;;;;5099447;28;20446;-63
2023/01/08 00:54:51;;;;;;;3.23;3.03;;;;;;;;;;5099410;28;20913;-62
2023/01/08 00:57:18;;;;;;;4.03;3.73;;;;;;;;;;5099222;28;20481;-63
2023/01/08 00:59:45;;;;;;;3.53;3.33;;;;;;;;;;5099326;28;20446;-62
2023/01/08 01:02:12;;;;;;;3.73;3.43;;;;;;;;;;5099225;28;20531;-63
2023/01/08 01:04:39;;;;;;;5.23;3.83;;;;;;;;;;5099080;28;20473;-63
2023/01/08 01:07:06;;;;;;;4.37;4.07;;;;;;;;;;5099330;28;20454;-63
2023/01/08 01:09:34;;;;;;;5.83;3.80;;;;;;;;;;5099271;28;20930;-63
2023/01/08 01:12:01;;;;;;;3.97;3.60;;;;;;;;;;5096397;28;20493;-62
2023/01/08 01:14:28;;;;;;;3.80;3.50;;;;;;;;;;5095944;28;20451;-62
2023/01/08 01:16:55;;;;;;;4.80;3.80;;;;;;;;;;5096260;28;20489;-63
2023/01/08 01:19:22;;;;;;;3.90;3.60;;;;;;;;;;5095778;28;20458;-63
2023/01/08 01:21:49;;;;;;;4.50;4.03;;;;;;;;;;5095824;28;20451;-63
2023/01/08 01:24:16;;;;;;;4.47;4.07;;;;;;;;;;5095739;28;20480;-63
2023/01/08 01:26:45;;;;;;;4.60;4.20;;;;;;;;;;5095584;28;20938;-63
2023/01/08 01:29:12;;;;;;;4.10;3.80;;;;;;;;;;5095652;28;20537;-62
2023/01/08 01:31:39;;;;;;;4.17;3.70;;;;;;;;;;5095478;28;20449;-63
2023/01/08 01:34:06;;;;;;;4.80;4.20;;;;;;;;;;5095723;28;20443;-63
2023/01/08 01:36:33;;;;;;;3.80;3.30;;;;;;;;;;5095445;28;20481;-63
2023/01/08 01:38:59;;;;;;;4.47;3.80;;;;;;;;;;5095515;28;20490;-62
2023/01/08 01:41:27;;;;;;;4.70;4.13;;;;;;;;;;5095454;28;20448;-63
2023/01/08 01:43:56;;;;;;;4.80;3.70;;;;;;;;;;5095122;28;21027;-63
2023/01/08 01:46:41;;;;;;;4.67;4.20;;;;;;;;;;5095201;28;20447;-63
2023/01/08 01:49:10;;;;;;;4.77;4.40;;;;;;;;;;5095425;28;20539;-62
2023/01/08 01:51:39;;;;;;;5.00;4.53;;;;;;;;;;5095108;28;20447;-63
2023/01/08 01:54:08;;;;;;;4.40;4.00;;;;;;;;;;5095156;28;20806;-62
2023/01/08 01:56:35;;;;;;;4.43;4.03;;;;;;;;;;5094975;28;20977;-62
2023/01/08 01:59:03;;;;;;;3.97;3.63;;;;;;;;;;5094920;28;20799;-62
2023/01/08 02:01:31;;;;;;;4.60;4.20;;;;;;;;;;5095040;28;20453;-63
2023/01/08 02:03:58;;;;;;;4.10;3.80;;;;;;;;;;5095012;28;20525;-63
2023/01/08 02:06:30;;;;;;;4.00;3.70;;;;;;;;;;5094928;28;20503;-63
2023/01/08 02:09:01;;;;;;;4.73;4.30;;;;;;;;;;5094908;28;20482;-62
2023/01/08 02:11:33;;;;;;;4.27;3.87;;;;;;;;;;5094747;28;20447;-63
2023/01/08 02:14:04;;;;;;;4.33;3.93;;;;;;;;;;5094902;28;20452;-63
2023/01/08 02:16:35;;;;;;;4.33;3.83;;;;;;;;;;5094758;28;20532;-63
2023/01/08 02:19:05;;;;;;;6.03;3.60;;;;;;;;;;5094811;28;20508;-62
2023/01/08 02:21:33;;;;;;;4.30;3.90;;;;;;;;;;5094539;28;20443;-63
2023/01/08 02:24:02;;;;;;;4.27;3.87;;;;;;;;;;5094348;28;20805;-63
2023/01/08 02:26:32;;;;;;;4.23;3.93;;;;;;;;;;5094897;28;20852;-63
2023/01/08 02:29:00;;;;;;;4.87;4.37;;;;;;;;;;5094559;28;20492;-63
2023/01/08 02:31:28;;;;;;;4.07;3.77;;;;;;;;;;5094469;28;20453;-63
2023/01/08 02:33:55;;;;;;;4.43;4.03;;;;;;;;;;5094362;28;20447;-63
2023/01/08 02:36:29;;;;;;;3.87;3.60;;;;;;;;;;5094183;28;20480;-63
2023/01/08 02:39:01;;;;;;;8.27;4.77;;;;;;;;;;5094444;28;20447;-63
2023/01/08 02:41:33;;;;;;;4.00;3.70;;;;;;;;;;5094353;28;20537;-63
2023/01/08 02:44:01;;;;;;;3.93;3.63;;;;;;;;;;5094048;28;20524;-63
2023/01/08 02:46:32;;;;;;;4.23;3.93;;;;;;;;;;5094205;28;20883;-62
2023/01/08 02:49:01;;;;;;;4.43;3.60;;;;;;;;;;5093886;28;20453;-63
2023/01/08 02:51:29;;;;;;;5.07;4.37;;;;;;;;;;5094189;28;20445;-63
2023/01/08 02:53:59;;;;;;;5.77;4.70;;;;;;;;;;5094053;28;20534;-62
2023/01/08 02:56:28;;;;;;;4.27;3.87;;;;;;;;;;5093956;28;21007;-62
2023/01/08 02:58:56;;;;;;;4.97;4.37;;;;;;;;;;5093972;28;20456;-62
2023/01/08 03:01:26;;;;;;;4.40;4.00;;;;;;;;;;5093716;28;20523;-62
2023/01/08 03:03:54;;;;;;;4.70;4.40;;;;;;;;;;5093913;28;20447;-63
2023/01/08 03:06:22;;;;;;;4.63;4.23;;;;;;;;;;5093797;28;20442;-63
2023/01/08 03:08:50;;;;;;;4.37;4.03;;;;;;;;;;5093784;28;20450;-62
2023/01/08 03:11:18;;;;;;;6.27;4.20;;;;;;;;;;5093684;28;20534;-63
2023/01/08 03:13:48;;;;;;;4.40;4.00;;;;;;;;;;5093546;28;20942;-62
2023/01/08 03:16:16;;;;;;;4.33;3.90;;;;;;;;;;5093665;28;20442;-63
2023/01/08 03:18:46;;;;;;;5.60;5.13;;;;;;;;;;5093614;28;20479;-62
2023/01/08 03:21:14;;;;;;;4.10;3.80;;;;;;;;;;5093597;28;20453;-62
2023/01/08 03:23:41;;;;;;;4.47;3.83;;;;;;;;;;5093479;28;20879;-63
2023/01/08 03:26:08;;;;;;;5.27;4.77;;;;;;;;;;5093484;28;20439;-62
2023/01/08 03:28:38;;;;;;;4.73;4.33;;;;;;;;;;5093266;28;20457;-62
2023/01/08 03:31:06;;;;;;;5.13;4.73;;;;;;;;;;5093999;28;20806;-63
2023/01/08 03:33:33;;;;;;;4.43;3.53;;;;;;;;;;5093428;28;20461;-63
2023/01/08 03:36:03;;;;;;;5.23;4.73;;;;;;;;;;5092834;28;20541;-63
2023/01/08 03:38:33;;;;;;;4.90;4.47;;;;;;;;;;5093184;28;20514;-63
2023/01/08 03:41:02;;;;;;;4.27;3.87;;;;;;;;;;5093136;28;20454;-62
2023/01/08 03:43:29;;;;;;;5.20;4.17;;;;;;;;;;5093312;28;20811;-63
2023/01/08 03:45:58;;;;;;;4.03;3.73;;;;;;;;;;5092962;28;20478;-62
2023/01/08 03:48:26;;;;;;;4.97;4.50;;;;;;;;;;5093136;28;20476;-62
2023/01/08 03:50:53;;;;;;;4.73;4.37;;;;;;;;;;5093061;28;20552;-62
2023/01/08 03:53:21;;;;;;;5.33;4.93;;;;;;;;;;5093003;28;20453;-63
2023/01/08 03:55:48;;;;;;;4.20;3.80;;;;;;;;;;5092943;28;20946;-63
2023/01/08 03:58:15;;;;;;;4.77;4.37;;;;;;;;;;5093022;28;20575;-63
2023/01/08 04:00:42;;;;;;;4.73;4.33;;;;;;;;;;5093088;28;20456;-63
2023/01/08 04:03:09;;;;;;;4.67;4.27;;;;;;;;;;5093009;28;20450;-63
2023/01/08 04:05:36;;;;;;;5.27;4.77;;;;;;;;;;5092930;28;20455;-62
2023/01/08 04:08:03;;;;;;;4.13;3.73;;;;;;;;;;5092823;28;20450;-63
2023/01/08 04:10:31;;;;;;;4.17;3.87;;;;;;;;;;5093068;28;20938;-63
2023/01/08 04:12:58;;;;;;;4.33;4.03;;;;;;;;;;5093044;28;20448;-63
2023/01/08 04:15:25;;;;;;;4.63;4.23;;;;;;;;;;5092892;28;20449;-63
2023/01/08 04:17:53;;;;;;;4.90;4.47;;;;;;;;;;5092868;28;20856;-63
2023/01/08 04:20:20;;;;;;;4.70;4.30;;;;;;;;;;5092741;28;20960;-63
2023/01/08 04:22:47;;;;;;;5.10;4.70;;;;;;;;;;5092843;28;20447;-63
2023/01/08 04:25:14;;;;;;;5.40;4.90;;;;;;;;;;5092937;28;20473;-63
2023/01/08 04:27:42;;;;;;;4.80;4.40;;;;;;;;;;5092645;28;20454;-62
2023/01/08 04:30:10;;;;;;;4.57;4.17;;;;;;;;;;5092791;28;20453;-62
2023/01/08 04:32:37;;;;;;;6.03;4.50;;;;;;;;;;5092793;28;20837;-62
2023/01/08 04:35:04;;;;;;;5.23;4.73;;;;;;;;;;5092740;28;20454;-63
2023/01/08 04:37:31;;;;;;;4.10;3.80;;;;;;;;;;5092731;28;20474;-63
2023/01/08 04:39:58;;;;;;;5.30;4.60;;;;;;;;;;5092579;28;20451;-63
2023/01/08 04:42:25;;;;;;;4.73;4.30;;;;;;;;;;5092774;28;20443;-62
2023/01/08 04:44:53;;;;;;;5.80;4.23;;;;;;;;;;5092566;28;20483;-62
2023/01/08 04:47:20;;;;;;;4.90;4.50;;;;;;;;;;5094361;28;20454;-62
2023/01/08 04:49:47;;;;;;;4.37;3.97;;;;;;;;;;5096342;28;20443;-62
2023/01/08 04:52:14;;;;;;;4.50;4.17;;;;;;;;;;5096583;28;20457;-63
2023/01/08 04:54:41;;;;;;;4.20;3.90;;;;;;;;;;5096468;28;20825;-62
2023/01/08 04:57:08;;;;;;;4.37;4.07;;;;;;;;;;5096236;28;20555;-62
2023/01/08 04:59:35;;;;;;;4.70;4.30;;;;;;;;;;5096285;28;20457;-62
2023/01/08 05:02:03;;;;;;;4.97;4.57;;;;;;;;;;5096087;28;20478;-63
2023/01/08 05:04:30;;;;;;;4.50;4.20;;;;;;;;;;5096278;28;20450;-62
2023/01/08 05:06:57;;;;;;;4.83;4.50;;;;;;;;;;5096278;28;20477;-62
2023/01/08 05:09:24;;;;;;;4.30;4.00;;;;;;;;;;5096107;28;20442;-62
2023/01/08 05:11:51;;;;;;;5.03;4.63;;;;;;;;;;5095970;28;20481;-63
2023/01/08 05:14:18;;;;;;;4.63;4.20;;;;;;;;;;5095932;28;20533;-62
2023/01/08 05:16:45;;;;;;;5.50;4.17;;;;;;;;;;5095813;28;20805;-62
2023/01/08 05:19:13;;;;;;;5.20;4.30;;;;;;;;;;5095975;28;20474;-62
2023/01/08 05:21:40;;;;;;;4.60;4.20;;;;;;;;;;5095743;28;20451;-62
2023/01/08 05:24:08;;;;;;;4.17;3.87;;;;;;;;;;5095822;28;20834;-62
2023/01/08 05:26:35;;;;;;;4.47;4.07;;;;;;;;;;5096086;28;20454;-62
2023/01/08 05:29:02;;;;;;;5.30;4.30;;;;;;;;;;5095645;28;20456;-62
2023/01/08 05:31:29;;;;;;;4.93;4.53;;;;;;;;;;5095467;28;20885;-62
2023/01/08 05:33:58;;;;;;;4.90;3.80;;;;;;;;;;5095758;28;20447;-63
2023/01/08 05:36:26;;;;;;;4.43;4.03;;;;;;;;;;5095625;28;20442;-62
2023/01/08 05:38:53;;;;;;;4.53;4.13;;;;;;;;;;5095255;28;21011;-63
2023/01/08 05:41:20;;;;;;;4.37;3.97;;;;;;;;;;5095464;28;20451;-62
2023/01/08 05:43:47;;;;;;;4.03;3.73;;;;;;;;;;5095299;28;20453;-62
2023/01/08 05:46:14;;;;;;;4.57;4.20;;;;;;;;;;5095589;28;20889;-63
2023/01/08 05:48:41;;;;;;;4.10;3.73;;;;;;;;;;5095419;28;20462;-63
2023/01/08 05:51:08;;;;;;;4.07;3.77;;;;;;;;;;5095483;28;20441;-63
2023/01/08 05:53:37;;;;;;;4.33;3.93;;;;;;;;;;5095211;28;20446;-62
2023/01/08 05:56:04;;;;;;;5.00;4.40;;;;;;;;;;5095025;28;20968;-62
2023/01/08 05:58:32;;;;;;;4.63;4.23;;;;;;;;;;5094435;28;20487;-62
2023/01/08 06:01:02;;;;;;;4.10;3.70;;;;;;;;;;5095179;28;20581;-63
2023/01/08 06:03:29;;;;;;;5.10;4.60;;;;;;;;;;5095154;28;20818;-62
2023/01/08 06:05:58;;;;;;;4.80;4.40;;;;;;;;;;5094980;28;20446;-63
2023/01/08 06:08:25;;;;;;;4.70;4.27;;;;;;;;;;5094855;28;21008;-62
2023/01/08 06:10:53;;;;;;;4.40;4.00;;;;;;;;;;5095245;28;20443;-63
2023/01/08 06:13:20;;;;;;;4.73;4.33;;;;;;;;;;5094963;28;20443;-63
2023/01/08 06:15:47;;;;;;;5.00;4.50;;;;;;;;;;5094912;28;21079;-62
2023/01/08 06:18:14;;;;;;;4.30;3.93;;;;;;;;;;5094632;28;20489;-63
2023/01/08 06:20:41;;;;;;;5.20;4.77;;;;;;;;;;5094632;28;20476;-62
2023/01/08 06:23:08;;;;;;;3.90;3.50;;;;;;;;;;5094608;28;20453;-62
2023/01/08 06:25:35;;;;;;;4.50;4.10;;;;;;;;;;5094421;28;20453;-63
2023/01/08 06:28:03;;;;;;;4.13;3.83;;;;;;;;;;5094676;28;20453;-63
2023/01/08 06:30:30;;;;;;;4.47;4.07;;;;;;;;;;5094565;28;20538;-62
2023/01/08 06:32:57;;;;;;;4.07;3.60;;;;;;;;;;5094346;28;20959;-63
2023/01/08 06:35:24;;;;;;;3.80;3.50;;;;;;;;;;5094388;28;20543;-62
2023/01/08 06:37:51;;;;;;;4.83;4.50;;;;;;;;;;5094170;28;20475;-63
2023/01/08 06:40:18;;;;;;;3.93;3.57;;;;;;;;;;5094690;28;20449;-63
2023/01/08 06:42:45;;;;;;;4.60;4.30;;;;;;;;;;5094345;28;20540;-62
2023/01/08 06:45:13;;;;;;;4.70;4.30;;;;;;;;;;5094077;28;20834;-63
2023/01/08 06:47:40;;;;;;;4.97;4.43;;;;;;;;;;5094159;28;20447;-63
2023/01/08 06:50:08;;;;;;;4.73;4.10;;;;;;;;;;5094063;28;20461;-62
2023/01/08 06:52:35;;;;;;;3.53;3.23;;;;;;;;;;5093962;28;20538;-62
2023/01/08 06:55:03;;;;;;;4.40;4.03;;;;;;;;;;5094125;28;20447;-62
2023/01/08 06:57:30;;;;;;;3.90;3.60;;;;;;;;;;5094051;28;20524;-63
2023/01/08 06:59:57;;;;;;;4.50;4.10;;;;;;;;;;5093934;28;20458;-62
2023/01/08 07:02:25;;;;;;;4.93;4.37;;;;;;;;;;5093894;28;20486;-62
2023/01/08 07:04:52;;;;;;;4.50;4.20;;;;;;;;;;5093875;28;20443;-63
2023/01/08 07:07:19;;;;;;;5.00;4.50;;;;;;;;;;5093660;28;20928;-63
2023/01/08 07:09:46;;;;;;;4.87;4.47;;;;;;;;;;5093079;28;20457;-63
2023/01/08 07:12:13;;;;;;;5.23;4.10;;;;;;;;;;5093696;28;20453;-63
2023/01/08 07:14:40;;;;;;;4.50;4.20;;;;;;;;;;5093689;28;20447;-62
2023/01/08 07:17:07;;;;;;;4.90;4.50;;;;;;;;;;5093679;28;20451;-63
2023/01/08 07:19:35;;;;;;;4.50;4.07;;;;;;;;;;5093309;28;20487;-63
2023/01/08 07:22:02;;;;;;;4.50;4.10;;;;;;;;;;5093083;28;20453;-63
2023/01/08 07:24:29;;;;;;;5.13;3.80;;;;;;;;;;5093148;28;20442;-63
2023/01/08 07:26:57;;;;;;;4.77;4.37;;;;;;;;;;5093033;28;20538;-63
2023/01/08 07:29:24;;;;;;;4.40;4.00;;;;;;;;;;5092942;28;20950;-63
2023/01/08 07:31:50;;;;;;;5.23;4.73;;;;;;;;;;5093189;28;20857;-63
2023/01/08 07:34:17;;;;;;;5.10;4.70;;;;;;;;;;5093035;28;20463;-63
2023/01/08 07:36:46;;;;;;;4.60;4.20;;;;;;;;;;5093029;28;20450;-63
2023/01/08 07:39:13;;;;;;;4.97;4.37;;;;;;;;;;5092767;28;20512;-63
2023/01/08 07:41:40;;;;;;;4.87;4.37;;;;;;;;;;5092836;28;20447;-63
2023/01/08 07:44:07;;;;;;;5.10;4.60;;;;;;;;;;5092459;28;20454;-62
2023/01/08 07:46:33;;;;;;;5.47;4.93;;;;;;;;;;5092780;28;20457;-62
2023/01/08 07:49:00;;;;;;;5.13;4.60;;;;;;;;;;5092466;28;20533;-63
2023/01/08 07:51:28;;;;;;;5.63;5.13;;;;;;;;;;5092957;28;20885;-63
2023/01/08 07:53:56;;;;;;;5.80;4.40;;;;;;;;;;5092864;28;20969;-63
2023/01/08 07:56:24;;;;;;;4.93;4.30;;;;;;;;;;5092798;28;20538;-63
2023/01/08 07:58:51;;;;;;;4.60;4.20;;;;;;;;;;5092463;28;21048;-62
2023/01/08 08:01:18;;;;;;;4.00;3.70;;;;;;;;;;5092443;28;21006;-63
2023/01/08 08:03:45;;;;;;;5.07;4.67;;;;;;;;;;5092798;28;20443;-62
2023/01/08 08:06:12;;;;;;;4.67;4.33;;;;;;;;;;5092716;28;20550;-63
2023/01/08 08:08:40;;;;;;;4.50;4.20;;;;;;;;;;5092608;28;20442;-63
2023/01/08 08:11:08;;;;;;;5.33;4.83;;;;;;;;;;5092470;28;20508;-63
2023/01/08 08:13:35;;;;;;;4.50;4.20;;;;;;;;;;5092485;28;20457;-63
2023/01/08 08:16:03;;;;;;;5.20;4.80;;;;;;;;;;5092351;28;20454;-62
2023/01/08 08:18:29;;;;;;;4.20;3.90;;;;;;;;;;5092542;28;21007;-63
2023/01/08 08:20:57;;;;;;;5.50;5.00;;;;;;;;;;5093715;28;20453;-62
2023/01/08 08:23:24;;;;;;;4.47;4.10;;;;;;;;;;5096396;28;20450;-63
2023/01/08 08:25:51;;;;;;;5.37;4.67;;;;;;;;;;5096521;28;20443;-62
2023/01/08 08:28:20;;;;;;;4.80;4.40;;;;;;;;;;5096312;28;20451;-63
2023/01/08 08:30:46;;;;;;;5.37;4.90;;;;;;;;;;5096434;28;20917;-62
2023/01/08 08:33:14;;;;;;;5.10;4.70;;;;;;;;;;5096538;28;20443;-63
2023/01/08 08:35:41;;;;;;;4.70;4.30;;;;;;;;;;5096337;28;20949;-62
2023/01/08 08:38:07;;;;;;;4.67;4.30;;;;;;;;;;5096249;28;20541;-62
2023/01/08 08:40:34;;;;;;;4.33;4.03;;;;;;;;;;5096008;28;20453;-62
2023/01/08 08:43:03;;;;;;;6.07;4.60;;;;;;;;;;5095929;28;20447;-63
2023/01/08 08:45:31;;;;;;;3.97;3.73;;;;;;;;;;5095967;28;20475;-63
2023/01/08 08:47:58;;;;;;;4.80;4.40;;;;;;;;;;5096130;28;20443;-63
2023/01/08 08:50:25;;;;;;;4.47;4.13;;;;;;;;;;5096067;28;20541;-63
2023/01/08 08:52:52;;;;;;;4.63;4.23;;;;;;;;;;5096068;28;20483;-63
2023/01/08 08:55:19;;;;;;;4.13;3.93;;;;;;;;;;5096018;28;21041;-62
2023/01/08 08:57:46;;;;;;;4.20;3.90;;;;;;;;;;5095805;28;20856;-63
2023/01/08 09:00:14;;;;;;;4.30;3.90;;;;;;;;;;5095905;28;20993;-63
2023/01/08 09:02:43;;;;;;;4.63;4.27;;;;;;;;;;5095805;28;20458;-63
2023/01/08 09:05:10;;;;;;;3.87;3.67;;;;;;;;;;5095985;28;20533;-63
2023/01/08 09:07:37;;;;;;;5.17;4.67;;;;;;;;;;5095841;28;20446;-63
2023/01/08 09:10:04;;;;;;;4.90;4.50;;;;;;;;;;5095551;28;20942;-63
2023/01/08 09:12:31;;;;;;;4.50;4.20;;;;;;;;;;5095871;28;20445;-63
2023/01/08 09:14:58;;;;;;;5.20;4.73;;;;;;;;;;5095815;28;20462;-63
2023/01/08 09:17:25;;;;;;;4.63;4.23;;;;;;;;;;5095701;28;20878;-63
2023/01/08 09:19:53;;;;;;;3.93;3.63;;;;;;;;;;5095540;28;20512;-63
2023/01/08 09:22:20;;;;;;;4.57;4.07;;;;;;;;;;5095446;28;20550;-63
2023/01/08 09:24:47;;;;;;;4.70;4.30;;;;;;;;;;5095365;28;20538;-63
2023/01/08 09:27:14;;;;;;;4.47;4.10;;;;;;;;;;5095553;28;21121;-63
2023/01/08 09:29:41;;;;;;;3.77;3.47;;;;;;;;;;5095514;28;20601;-63
2023/01/08 09:32:09;;;;;;;6.37;3.83;;;;;;;;;;5094650;28;20447;-63
2023/01/08 09:34:37;;;;;;;5.40;4.90;;;;;;;;;;5095135;28;20538;-62
2023/01/08 09:37:05;;;;;;;4.40;4.00;;;;;;;;;;5094974;28;20931;-63
2023/01/08 09:39:32;;;;;;;3.30;3.10;;;;;;;;;;5094966;28;20815;-63
2023/01/08 09:42:01;;;;;;;4.33;3.90;;;;;;;;;;5095157;28;20450;-63
2023/01/08 09:44:30;;;;;;;3.60;3.30;;;;;;;;;;5094847;28;20476;-63
2023/01/08 09:46:57;;;;;;;3.50;3.20;;;;;;;;;;5095022;28;20536;-63
2023/01/08 09:49:28;;;;;;;4.10;3.80;;;;;;;;;;5095047;28;20809;-62
2023/01/08 09:51:55;;;;;;;4.03;3.70;;;;;;;;;;5094812;28;20455;-63
2023/01/08 09:54:25;;;;;;;3.50;3.20;;;;;;;;;;5094813;28;20458;-62
2023/01/08 09:56:53;;;;;;;3.47;3.27;;;;;;;;;;5094766;28;20947;-62
2023/01/08 09:59:20;;;;;;;3.63;3.43;;;;;;;;;;5094709;28;20481;-62
2023/01/08 10:01:47;;;;;;;3.50;3.03;;;;;;;;;;5094727;28;20783;-63
2023/01/08 10:04:15;;;;;;;3.40;3.10;;;;;;;;;;5094636;28;20520;-63
2023/01/08 10:06:47;;;;;;;3.97;3.60;;;;;;;;;;5094885;28;20785;-64
2023/01/08 10:09:14;;;;;;;3.53;3.23;;;;;;;;;;5094574;28;20942;-63
2023/01/08 10:11:45;;;;;;;3.80;3.50;;;;;;;;;;5094481;28;20451;-63
2023/01/08 10:14:19;;;;;;;4.27;3.80;;;;;;;;;;5094683;28;20504;-62
2023/01/08 10:16:48;;;;;;;3.93;3.63;;;;;;;;;;5094539;28;20542;-63
2023/01/08 10:19:15;;;;;;;3.27;3.07;;;;;;;;;;5094531;28;20821;-63
2023/01/08 10:21:42;;;;;;;4.27;3.20;;;;;;;;;;5094512;28;20475;-63
2023/01/08 10:24:09;;;;;;;3.80;3.53;;;;;;;;;;5094350;28;20447;-63
2023/01/08 10:26:38;;;;;;;3.57;3.30;;;;;;;;;;5094378;28;20886;-63
2023/01/08 10:29:12;;;;;;;3.73;3.43;;;;;;;;;;5094220;28;20450;-62
2023/01/08 10:31:45;;;;;;;3.63;3.43;;;;;;;;;;5094392;28;20542;-62
2023/01/08 10:34:13;;;;;;;3.93;3.60;;;;;;;;;;5094097;28;20455;-62
2023/01/08 10:36:40;;;;;;;4.50;4.10;;;;;;;;;;5093862;28;20957;-62
2023/01/08 10:39:08;;;;;;;4.60;4.20;;;;;;;;;;5093873;28;20894;-62
2023/01/08 10:41:38;;;;;;;4.20;3.90;;;;;;;;;;5093841;28;20460;-62
2023/01/08 10:44:06;;;;;;;5.17;4.70;;;;;;;;;;5093775;28;20533;-62
2023/01/08 10:46:36;;;;;;;4.10;3.80;;;;;;;;;;5093988;28;20957;-62
2023/01/08 10:49:06;;;;;;;3.80;3.53;;;;;;;;;;5093875;28;20443;-62
2023/01/08 10:51:33;;;;;;;4.20;3.90;;;;;;;;;;5093750;28;20450;-62
2023/01/08 10:54:02;;;;;;;4.53;4.10;;;;;;;;;;5093592;28;20885;-62
2023/01/08 10:56:30;;;;;;;4.70;4.30;;;;;;;;;;5093463;28;20534;-62
2023/01/08 10:58:57;;;;;;;4.87;4.47;;;;;;;;;;5093286;28;21074;-62
2023/01/08 11:01:25;;;;;;;4.10;3.70;;;;;;;;;;5093366;28;20499;-62
2023/01/08 11:03:54;;;;;;;4.83;4.23;;;;;;;;;;5093582;28;20447;-62
2023/01/08 11:06:22;;;;;;;6.43;4.90;;;;;;;;;;5093388;28;20799;-62
2023/01/08 11:08:51;;;;;;;5.00;4.60;;;;;;;;;;5093288;28;20443;-62
2023/01/08 11:11:18;;;;;;;6.97;3.90;;;;;;;;;;5093385;28;20464;-64
2023/01/08 11:13:52;;;;;;;4.60;4.20;;;;;;;;;;5093384;28;20534;-62
2023/01/08 11:16:19;;;;;;;5.67;5.27;;;;;;;;;;5093350;28;20858;-62
2023/01/08 11:18:47;;;;;;;4.70;4.40;;;;;;;;;;5093027;28;20542;-62
2023/01/08 11:21:20;;;;;;;7.03;5.20;;;;;;;;;;5093166;28;20483;-63
2023/01/08 11:23:48;;;;;;;5.53;5.03;;;;;;;;;;5093338;28;20443;-62
2023/01/08 11:26:17;;;;;;;4.60;4.20;;;;;;;;;;5093105;28;20447;-60
2023/01/08 11:28:47;;;;;;;5.20;4.70;;;;;;;;;;5093013;28;20538;-60
2023/01/08 11:31:15;;;;;;;5.30;4.80;;;;;;;;;;5092930;28;20535;-60
2023/01/08 11:33:42;;;;;;;4.90;4.50;;;;;;;;;;5092780;28;20461;-61
2023/01/08 11:36:12;;;;;;;8.10;5.00;;;;;;;;;;5092843;28;20560;-60
2023/01/08 11:38:40;;;;;;;6.23;5.67;;;;;;;;;;5092975;28;20542;-61
2023/01/08 11:41:15;;;;;;;5.30;4.83;;;;;;;;;;5092897;28;20537;-61
2023/01/08 11:43:46;;;;;;;4.93;4.47;;;;;;;;;;5092744;28;20537;-61
2023/01/08 11:46:21;;;;;;;5.03;4.73;;;;;;;;;;5092543;28;20826;-61
2023/01/08 11:48:55;;;;;;;4.83;4.43;;;;;;;;;;5092958;28;20488;-62
2023/01/08 11:51:32;;;;;;;4.73;4.43;;;;;;;;;;5092859;28;20541;-61
2023/01/08 11:54:06;;;;;;;4.67;4.27;;;;;;;;;;5092839;28;20451;-61
2023/01/08 11:56:40;;;;;;;4.53;4.13;;;;;;;;;;5092252;28;20534;-61
2023/01/08 11:59:14;;;;;;;4.70;4.30;;;;;;;;;;5092514;28;20974;-61
2023/01/08 12:01:48;;;;;;;4.40;4.10;;;;;;;;;;5092829;28;20534;-61
2023/01/08 12:04:28;;;;;;;4.60;4.30;;;;;;;;;;5092592;28;20454;-61
2023/01/08 12:07:00;;;;;;;5.60;3.93;;;;;;;;;;5092588;28;20893;-61
2023/01/08 12:09:36;;;;;;;6.30;5.07;;;;;;;;;;5092548;28;20445;-61
2023/01/08 12:12:05;;;;;;;4.63;4.23;;;;;;;;;;5092655;28;20475;-61
2023/01/08 12:14:38;;;;;;;5.17;4.67;;;;;;;;;;5092654;28;20439;-61
2023/01/08 12:17:11;;;;;;;4.30;3.90;;;;;;;;;;5092485;28;20457;-61
2023/01/08 12:19:46;;;;;;;4.00;3.70;;;;;;;;;;5092326;28;20478;-61
2023/01/08 12:22:26;;;;;;;4.33;4.03;;;;;;;;;;5092673;28;20456;-61
2023/01/08 12:25:11;;;;;;;3.80;3.50;;;;;;;;;;5092648;28;20466;-61
2023/01/08 12:27:45;;;;;;;4.13;3.83;;;;;;;;;;5082122;28;20455;-61
2023/01/08 12:30:16;;;;;;;4.13;3.43;;;;;;;;;;5092348;28;20538;-61
2023/01/08 12:32:46;;;;;;;4.13;3.83;;;;;;;;;;5092580;28;20453;-61
2023/01/08 12:35:14;;;;;;;4.33;3.93;;;;;;;;;;5092321;28;20492;-61
2023/01/08 12:37:45;;;;;;;7.37;3.23;;;;;;;;;;5092401;28;20526;-61
2023/01/08 12:40:17;;;;;;;4.80;4.30;;;;;;;;;;5092705;28;20480;-61
2023/01/08 12:42:46;;;;;;;4.20;3.83;;;;;;;;;;5092085;28;20952;-62
2023/01/08 12:45:22;;;;;;;4.23;3.90;;;;;;;;;;5092046;28;20481;-62
2023/01/08 12:47:51;;;;;;;4.30;4.00;;;;;;;;;;5092290;28;20545;-62
2023/01/08 12:50:24;;;;;;;4.33;4.03;;;;;;;;;;5092134;28;20451;-62
2023/01/08 12:52:53;;;;;;;5.03;4.60;;;;;;;;;;5092053;28;20542;-63
2023/01/08 12:55:27;;;;;;;5.07;4.57;;;;;;;;;;5092247;28;20535;-61
2023/01/08 12:57:58;;;;;;;4.70;4.30;;;;;;;;;;5092072;28;20451;-62
2023/01/08 13:00:28;;;;;;;4.63;4.30;;;;;;;;;;5092008;28;20942;-62
2023/01/08 13:02:58;;;;;;;5.00;4.60;;;;;;;;;;5091960;28;20447;-61
2023/01/08 13:05:33;;;;;;;5.00;4.60;;;;;;;;;;5091995;28;20550;-62
2023/01/08 13:08:01;;;;;;;4.83;4.43;;;;;;;;;;5093268;28;20503;-62
2023/01/08 13:10:33;;;;;;;5.00;4.60;;;;;;;;;;5095732;28;20996;-62
2023/01/08 13:13:02;;;;;;;9.43;4.90;;;;;;;;;;5095887;28;20487;-62
2023/01/08 13:15:29;;;;;;;5.10;4.60;;;;;;;;;;5095718;28;20478;-62
2023/01/08 13:17:57;;;;;;;6.20;5.63;;;;;;;;;;5095612;28;20457;-62
2023/01/08 13:20:25;;;;;;;5.60;5.20;;;;;;;;;;5095898;28;20471;-62
2023/01/08 13:22:53;;;;;;;5.53;5.03;;;;;;;;;;5095694;28;20542;-62
2023/01/08 13:25:28;;;;;;;5.80;5.30;;;;;;;;;;5095430;28;20480;-62
2023/01/08 13:27:55;;;;;;;5.07;4.57;;;;;;;;;;5095374;28;20450;-61
2023/01/08 13:30:37;;;;;;;6.00;5.10;;;;;;;;;;5095296;28;20451;-62
2023/01/08 13:33:22;;;;;;;5.90;5.17;;;;;;;;;;5095509;28;20462;-62
2023/01/08 13:35:49;;;;;;;5.80;5.17;;;;;;;;;;5095375;28;20876;-61
2023/01/08 13:38:17;;;;;;;6.00;5.20;;;;;;;;;;5095095;28;20953;-62
2023/01/08 13:40:52;;;;;;;4.27;3.90;;;;;;;;;;5094939;28;20477;-61
2023/01/08 13:43:20;;;;;;;4.93;4.53;;;;;;;;;;5095215;28;20451;-61
2023/01/08 13:45:55;;;;;;;5.83;5.23;;;;;;;;;;5094807;28;20861;-62
2023/01/08 13:48:23;;;;;;;5.97;5.47;;;;;;;;;;5095425;28;20802;-61
2023/01/08 13:50:50;;;;;;;5.80;5.30;;;;;;;;;;5095134;28;20469;-61
2023/01/08 13:53:17;;;;;;;5.67;4.90;;;;;;;;;;5094960;28;20442;-63
2023/01/08 13:55:53;;;;;;;6.33;5.73;;;;;;;;;;5094778;28;20768;-62
2023/01/08 13:58:24;;;;;;;6.37;5.77;;;;;;;;;;5094844;28;20446;-62
2023/01/08 14:00:53;;;;;;;5.80;5.23;;;;;;;;;;5094739;28;20494;-62
2023/01/08 14:03:24;;;;;;;6.70;6.10;;;;;;;;;;5094679;28;20443;-60
2023/01/08 14:05:51;;;;;;;8.50;5.97;;;;;;;;;;5094456;28;20907;-62
2023/01/08 14:08:22;;;;;;;6.50;5.73;;;;;;;;;;5094453;28;20447;-62
2023/01/08 14:10:49;;;;;;;6.90;6.00;;;;;;;;;;5094601;28;20451;-62
2023/01/08 14:13:17;;;;;;;6.20;5.60;;;;;;;;;;5094391;28;20531;-62
2023/01/08 14:15:44;;;;;;;6.20;5.60;;;;;;;;;;5094367;28;20443;-62
2023/01/08 14:18:13;;;;;;;9.27;6.30;;;;;;;;;;5093999;28;20535;-62
2023/01/08 14:20:42;;;;;;;6.63;6.03;;;;;;;;;;5094153;28;20575;-62
2023/01/08 14:23:10;;;;;;;8.30;6.53;;;;;;;;;;5094314;28;20454;-62
2023/01/08 14:25:38;;;;;;;8.30;6.23;;;;;;;;;;5094330;28;20454;-62
2023/01/08 14:28:05;;;;;;;6.90;6.33;;;;;;;;;;5094075;28;20973;-62
2023/01/08 14:30:34;;;;;;;6.37;5.63;;;;;;;;;;5094038;28;20960;-62
2023/01/08 14:33:01;;;;;;;7.13;5.87;;;;;;;;;;5093966;28;20508;-62
2023/01/08 14:35:32;;;;;;;6.37;5.80;;;;;;;;;;5094184;28;20483;-63
2023/01/08 14:37:59;;;;;;;7.67;6.53;;;;;;;;;;5093862;28;20950;-62
2023/01/08 14:40:31;;;;;;;6.80;6.13;;;;;;;;;;5093622;28;20998;-62
2023/01/08 14:42:59;;;;;;;6.57;5.97;;;;;;;;;;5093832;28;20810;-62
2023/01/08 14:45:27;;;;;;;8.50;6.53;;;;;;;;;;5093575;28;20471;-63
2023/01/08 14:47:55;;;;;;;7.10;6.33;;;;;;;;;;5093882;28;20439;-62
2023/01/08 14:50:24;;;;;;;7.30;6.63;;;;;;;;;;5093837;28;20451;-62